sensor_id;sensor_type;location;lat;lon;timestamp;pressure;altitude;pressure_sealevel;temperature;humidity
56142;BME280;42018;48.588;10.836;2022-07-22T00:00:16;97215.22;;;21.74;63.72
56142;BME280;42018;48.588;10.836;2022-07-22T00:03:02;97206.72;;;21.84;62.57
56142;BME280;42018;48.588;10.836;2022-07-22T00:05:47;97209.56;;;21.88;62.74
56142;BME280;42018;48.588;10.836;2022-07-22T00:08:33;97204.16;;;21.88;62.83
56142;BME280;42018;48.588;10.836;2022-07-22T00:11:18;97197.81;;;21.92;62.29
56142;BME280;42018;48.588;10.836;2022-07-22T00:14:04;97202.72;;;21.90;62.64
56142;BME280;42018;48.588;10.836;2022-07-22T00:16:49;97206.13;;;21.79;62.81
56142;BME280;42018;48.588;10.836;2022-07-22T00:19:34;97198.19;;;21.52;63.97
56142;BME280;42018;48.588;10.836;2022-07-22T00:22:20;97196.16;;;21.49;63.87
56142;BME280;42018;48.588;10.836;2022-07-22T00:25:06;97190.84;;;21.62;63.10
56142;BME280;42018;48.588;10.836;2022-07-22T00:27:51;97198.22;;;21.73;62.26
56142;BME280;42018;48.588;10.836;2022-07-22T00:30:37;97189.34;;;21.73;62.54
56142;BME280;42018;48.588;10.836;2022-07-22T00:33:22;97198.69;;;21.75;62.37
56142;BME280;42018;48.588;10.836;2022-07-22T00:36:08;97192.50;;;21.75;62.24
56142;BME280;42018;48.588;10.836;2022-07-22T00:38:53;97193.50;;;21.70;62.54
56142;BME280;42018;48.588;10.836;2022-07-22T00:41:39;97186.72;;;21.56;62.75
56142;BME280;42018;48.588;10.836;2022-07-22T00:44:24;97186.16;;;21.50;62.56
56142;BME280;42018;48.588;10.836;2022-07-22T00:47:09;97191.91;;;21.31;63.38
56142;BME280;42018;48.588;10.836;2022-07-22T00:49:55;97188.47;;;21.22;63.33
56142;BME280;42018;48.588;10.836;2022-07-22T00:52:41;97188.13;;;21.23;63.32
56142;BME280;42018;48.588;10.836;2022-07-22T00:55:27;97186.69;;;21.26;63.39
56142;BME280;42018;48.588;10.836;2022-07-22T00:58:13;97190.19;;;21.35;62.63
56142;BME280;42018;48.588;10.836;2022-07-22T01:00:58;97181.59;;;21.42;62.77
56142;BME280;42018;48.588;10.836;2022-07-22T01:03:43;97185.72;;;21.39;63.12
56142;BME280;42018;48.588;10.836;2022-07-22T01:06:29;97188.25;;;21.27;63.59
56142;BME280;42018;48.588;10.836;2022-07-22T01:09:15;97181.94;;;21.23;63.13
56142;BME280;42018;48.588;10.836;2022-07-22T01:12:02;97179.78;;;21.08;63.85
56142;BME280;42018;48.588;10.836;2022-07-22T01:14:47;97177.31;;;20.94;63.18
56142;BME280;42018;48.588;10.836;2022-07-22T01:17:33;97181.13;;;20.84;62.75
56142;BME280;42018;48.588;10.836;2022-07-22T01:20:18;97174.66;;;20.85;62.62
56142;BME280;42018;48.588;10.836;2022-07-22T01:23:03;97177.34;;;20.85;63.47
56142;BME280;42018;48.588;10.836;2022-07-22T01:25:49;97178.91;;;20.86;63.56
56142;BME280;42018;48.588;10.836;2022-07-22T01:28:34;97185.72;;;20.84;63.66
56142;BME280;42018;48.588;10.836;2022-07-22T01:31:20;97182.88;;;20.80;63.88
56142;BME280;42018;48.588;10.836;2022-07-22T01:34:05;97183.06;;;20.75;64.22
56142;BME280;42018;48.588;10.836;2022-07-22T01:36:51;97187.31;;;20.76;63.93
56142;BME280;42018;48.588;10.836;2022-07-22T01:39:36;97181.78;;;20.72;64.13
56142;BME280;42018;48.588;10.836;2022-07-22T01:42:21;97179.13;;;20.12;67.01
56142;BME280;42018;48.588;10.836;2022-07-22T01:45:07;97182.91;;;20.02;67.19
56142;BME280;42018;48.588;10.836;2022-07-22T01:47:53;97175.00;;;20.14;66.19
56142;BME280;42018;48.588;10.836;2022-07-22T01:50:39;97176.91;;;20.22;65.71
56142;BME280;42018;48.588;10.836;2022-07-22T01:53:25;97178.94;;;20.17;66.05
56142;BME280;42018;48.588;10.836;2022-07-22T01:56:11;97181.00;;;20.37;65.00
56142;BME280;42018;48.588;10.836;2022-07-22T01:58:56;97178.47;;;20.06;66.28
56142;BME280;42018;48.588;10.836;2022-07-22T02:01:42;97171.53;;;19.96;66.63
56142;BME280;42018;48.588;10.836;2022-07-22T02:04:27;97177.06;;;20.00;66.58
56142;BME280;42018;48.588;10.836;2022-07-22T02:07:12;97174.47;;;19.77;67.17
56142;BME280;42018;48.588;10.836;2022-07-22T02:09:58;97176.84;;;19.70;67.38
56142;BME280;42018;48.588;10.836;2022-07-22T02:12:43;97176.81;;;19.61;67.39
56142;BME280;42018;48.588;10.836;2022-07-22T02:15:29;97177.16;;;19.77;66.71
56142;BME280;42018;48.588;10.836;2022-07-22T02:18:16;97177.00;;;19.74;66.74
56142;BME280;42018;48.588;10.836;2022-07-22T02:21:02;97170.34;;;19.63;66.94
56142;BME280;42018;48.588;10.836;2022-07-22T02:23:49;97167.38;;;19.73;66.50
56142;BME280;42018;48.588;10.836;2022-07-22T02:26:34;97169.09;;;19.69;66.33
56142;BME280;42018;48.588;10.836;2022-07-22T02:29:19;97163.56;;;19.65;66.42
56142;BME280;42018;48.588;10.836;2022-07-22T02:32:05;97160.19;;;19.59;66.99
56142;BME280;42018;48.588;10.836;2022-07-22T02:34:50;97161.16;;;19.64;66.86
56142;BME280;42018;48.588;10.836;2022-07-22T02:37:36;97161.50;;;19.71;66.78
56142;BME280;42018;48.588;10.836;2022-07-22T02:40:22;97161.34;;;19.67;66.68
56142;BME280;42018;48.588;10.836;2022-07-22T02:43:08;97161.91;;;19.55;67.47
56142;BME280;42018;48.588;10.836;2022-07-22T02:45:53;97165.31;;;19.70;66.57
56142;BME280;42018;48.588;10.836;2022-07-22T02:48:39;97162.66;;;19.78;66.49
56142;BME280;42018;48.588;10.836;2022-07-22T02:51:24;97160.56;;;19.84;66.38
56142;BME280;42018;48.588;10.836;2022-07-22T02:54:11;97163.09;;;19.80;65.97
56142;BME280;42018;48.588;10.836;2022-07-22T02:56:56;97162.16;;;19.68;66.64
56142;BME280;42018;48.588;10.836;2022-07-22T02:59:41;97168.47;;;19.72;66.26
56142;BME280;42018;48.588;10.836;2022-07-22T03:02:27;97166.25;;;19.74;66.30
56142;BME280;42018;48.588;10.836;2022-07-22T03:05:15;97165.34;;;19.78;66.20
56142;BME280;42018;48.588;10.836;2022-07-22T03:08:01;97164.50;;;19.78;65.79
56142;BME280;42018;48.588;10.836;2022-07-22T03:10:46;97166.41;;;19.69;66.21
56142;BME280;42018;48.588;10.836;2022-07-22T03:13:32;97176.47;;;19.54;66.62
56142;BME280;42018;48.588;10.836;2022-07-22T03:16:17;97171.84;;;19.37;67.29
56142;BME280;42018;48.588;10.836;2022-07-22T03:19:02;97165.50;;;19.33;67.40
56142;BME280;42018;48.588;10.836;2022-07-22T03:21:48;97167.13;;;19.43;67.11
56142;BME280;42018;48.588;10.836;2022-07-22T03:24:34;97167.13;;;19.43;67.04
56142;BME280;42018;48.588;10.836;2022-07-22T03:27:19;97171.72;;;19.43;66.42
56142;BME280;42018;48.588;10.836;2022-07-22T03:30:05;97171.53;;;19.39;66.68
56142;BME280;42018;48.588;10.836;2022-07-22T03:32:50;97172.00;;;19.32;66.73
56142;BME280;42018;48.588;10.836;2022-07-22T03:35:36;97180.66;;;19.29;66.83
56142;BME280;42018;48.588;10.836;2022-07-22T03:38:21;97167.06;;;19.26;66.76
56142;BME280;42018;48.588;10.836;2022-07-22T03:41:07;97168.28;;;19.20;66.94
56142;BME280;42018;48.588;10.836;2022-07-22T03:43:52;97163.59;;;19.25;66.26
56142;BME280;42018;48.588;10.836;2022-07-22T03:46:38;97163.25;;;19.27;66.50
56142;BME280;42018;48.588;10.836;2022-07-22T03:49:23;97165.00;;;19.23;66.59
56142;BME280;42018;48.588;10.836;2022-07-22T03:52:08;97170.22;;;19.28;65.92
56142;BME280;42018;48.588;10.836;2022-07-22T03:54:54;97159.81;;;19.35;66.04
56142;BME280;42018;48.588;10.836;2022-07-22T03:57:39;97171.19;;;19.32;65.96
56142;BME280;42018;48.588;10.836;2022-07-22T04:00:24;97165.78;;;19.23;66.70
56142;BME280;42018;48.588;10.836;2022-07-22T04:03:10;97167.06;;;19.26;66.52
56142;BME280;42018;48.588;10.836;2022-07-22T04:05:55;97174.94;;;19.22;66.87
56142;BME280;42018;48.588;10.836;2022-07-22T04:08:41;97173.53;;;19.25;66.26
56142;BME280;42018;48.588;10.836;2022-07-22T04:11:26;97173.22;;;19.26;66.43
56142;BME280;42018;48.588;10.836;2022-07-22T04:14:12;97178.69;;;19.12;66.60
56142;BME280;42018;48.588;10.836;2022-07-22T04:16:57;97170.63;;;19.12;66.69
56142;BME280;42018;48.588;10.836;2022-07-22T04:19:43;97178.69;;;19.12;66.97
56142;BME280;42018;48.588;10.836;2022-07-22T04:22:28;97174.00;;;19.27;66.01
56142;BME280;42018;48.588;10.836;2022-07-22T04:25:13;97172.50;;;19.43;65.28
56142;BME280;42018;48.588;10.836;2022-07-22T04:28:00;97180.28;;;19.62;65.19
56142;BME280;42018;48.588;10.836;2022-07-22T04:30:45;97171.19;;;19.89;64.28
56142;BME280;42018;48.588;10.836;2022-07-22T04:33:31;97168.69;;;20.10;63.75
56142;BME280;42018;48.588;10.836;2022-07-22T04:36:16;97170.09;;;20.16;64.29
56142;BME280;42018;48.588;10.836;2022-07-22T04:39:01;97164.41;;;20.35;63.53
56142;BME280;42018;48.588;10.836;2022-07-22T04:41:47;97165.50;;;20.51;63.06
56142;BME280;42018;48.588;10.836;2022-07-22T04:44:32;97168.19;;;20.60;63.29
56142;BME280;42018;48.588;10.836;2022-07-22T04:47:17;97159.63;;;20.67;63.38
56142;BME280;42018;48.588;10.836;2022-07-22T04:50:03;97164.38;;;20.70;63.00
56142;BME280;42018;48.588;10.836;2022-07-22T04:52:49;97160.53;;;20.79;63.08
56142;BME280;42018;48.588;10.836;2022-07-22T04:55:34;97159.56;;;20.84;63.82
56142;BME280;42018;48.588;10.836;2022-07-22T04:58:20;97165.09;;;20.88;63.77
56142;BME280;42018;48.588;10.836;2022-07-22T05:01:05;97158.44;;;20.94;63.23
56142;BME280;42018;48.588;10.836;2022-07-22T05:03:51;97160.84;;;20.87;63.08
56142;BME280;42018;48.588;10.836;2022-07-22T05:06:39;97164.50;;;20.82;63.12
56142;BME280;42018;48.588;10.836;2022-07-22T05:09:25;97153.09;;;20.76;64.14
56142;BME280;42018;48.588;10.836;2022-07-22T05:12:10;97165.81;;;20.59;64.70
56142;BME280;42018;48.588;10.836;2022-07-22T05:14:55;97162.34;;;20.58;65.24
56142;BME280;42018;48.588;10.836;2022-07-22T05:17:41;97166.38;;;20.90;64.18
56142;BME280;42018;48.588;10.836;2022-07-22T05:20:26;97160.75;;;21.13;63.76
56142;BME280;42018;48.588;10.836;2022-07-22T05:23:12;97166.84;;;21.39;62.48
56142;BME280;42018;48.588;10.836;2022-07-22T05:25:57;97173.97;;;21.44;61.37
56142;BME280;42018;48.588;10.836;2022-07-22T05:28:43;97164.25;;;21.51;60.44
56142;BME280;42018;48.588;10.836;2022-07-22T05:31:28;97170.00;;;21.71;60.06
56142;BME280;42018;48.588;10.836;2022-07-22T05:34:14;97163.69;;;21.88;60.23
56142;BME280;42018;48.588;10.836;2022-07-22T05:36:59;97167.66;;;21.90;59.90
56142;BME280;42018;48.588;10.836;2022-07-22T05:39:44;97172.66;;;22.00;59.85
56142;BME280;42018;48.588;10.836;2022-07-22T05:42:30;97161.75;;;22.18;59.33
56142;BME280;42018;48.588;10.836;2022-07-22T05:45:15;97167.03;;;22.35;58.14
56142;BME280;42018;48.588;10.836;2022-07-22T05:48:00;97169.09;;;22.51;58.08
56142;BME280;42018;48.588;10.836;2022-07-22T05:50:46;97174.13;;;22.73;56.81
56142;BME280;42018;48.588;10.836;2022-07-22T05:53:32;97162.22;;;22.86;56.21
56142;BME280;42018;48.588;10.836;2022-07-22T05:56:17;97161.09;;;22.87;56.69
56142;BME280;42018;48.588;10.836;2022-07-22T05:59:03;97170.31;;;22.86;56.22
56142;BME280;42018;48.588;10.836;2022-07-22T06:01:48;97173.72;;;22.50;56.73
56142;BME280;42018;48.588;10.836;2022-07-22T06:04:34;97170.25;;;22.62;57.85
56142;BME280;42018;48.588;10.836;2022-07-22T06:07:19;97172.50;;;22.93;56.79
56142;BME280;42018;48.588;10.836;2022-07-22T06:10:05;97168.50;;;23.24;56.57
56142;BME280;42018;48.588;10.836;2022-07-22T06:12:50;97170.53;;;23.39;56.16
56142;BME280;42018;48.588;10.836;2022-07-22T06:15:35;97169.63;;;23.59;55.15
56142;BME280;42018;48.588;10.836;2022-07-22T06:18:21;97175.06;;;23.59;55.19
56142;BME280;42018;48.588;10.836;2022-07-22T06:21:06;97180.34;;;23.68;54.90
56142;BME280;42018;48.588;10.836;2022-07-22T06:23:52;97173.69;;;23.78;54.53
56142;BME280;42018;48.588;10.836;2022-07-22T06:26:38;97171.88;;;23.82;54.54
56142;BME280;42018;48.588;10.836;2022-07-22T06:29:23;97168.94;;;23.99;54.12
56142;BME280;42018;48.588;10.836;2022-07-22T06:32:09;97175.91;;;24.12;52.77
56142;BME280;42018;48.588;10.836;2022-07-22T06:34:54;97174.41;;;24.15;53.06
56142;BME280;42018;48.588;10.836;2022-07-22T06:37:39;97169.59;;;24.49;53.38
56142;BME280;42018;48.588;10.836;2022-07-22T06:40:25;97177.31;;;24.63;52.59
56142;BME280;42018;48.588;10.836;2022-07-22T06:43:10;97176.63;;;24.25;52.39
56142;BME280;42018;48.588;10.836;2022-07-22T06:45:55;97178.91;;;24.23;53.08
56142;BME280;42018;48.588;10.836;2022-07-22T06:48:41;97172.50;;;24.56;53.08
56142;BME280;42018;48.588;10.836;2022-07-22T06:51:27;97178.84;;;24.92;52.17
56142;BME280;42018;48.588;10.836;2022-07-22T06:54:12;97179.63;;;25.08;52.18
56142;BME280;42018;48.588;10.836;2022-07-22T06:56:58;97174.53;;;25.35;51.19
56142;BME280;42018;48.588;10.836;2022-07-22T06:59:43;97166.28;;;25.47;51.18
56142;BME280;42018;48.588;10.836;2022-07-22T07:02:29;97173.88;;;25.57;50.58
56142;BME280;42018;48.588;10.836;2022-07-22T07:05:14;97170.00;;;25.74;50.71
56142;BME280;42018;48.588;10.836;2022-07-22T07:08:00;97170.34;;;25.88;50.16
56142;BME280;42018;48.588;10.836;2022-07-22T07:10:45;97161.50;;;26.11;50.16
56142;BME280;42018;48.588;10.836;2022-07-22T07:13:31;97158.22;;;26.21;48.27
56142;BME280;42018;48.588;10.836;2022-07-22T07:16:16;97161.34;;;26.03;47.49
56142;BME280;42018;48.588;10.836;2022-07-22T07:19:02;97157.84;;;25.84;48.61
56142;BME280;42018;48.588;10.836;2022-07-22T07:21:47;97153.13;;;26.00;47.67
56142;BME280;42018;48.588;10.836;2022-07-22T07:24:32;97149.72;;;26.03;47.67
56142;BME280;42018;48.588;10.836;2022-07-22T07:27:18;97146.38;;;26.10;47.53
56142;BME280;42018;48.588;10.836;2022-07-22T07:30:04;97146.78;;;26.31;48.39
56142;BME280;42018;48.588;10.836;2022-07-22T07:32:50;97148.72;;;26.31;46.38
56142;BME280;42018;48.588;10.836;2022-07-22T07:35:35;97143.13;;;26.43;46.97
56142;BME280;42018;48.588;10.836;2022-07-22T07:38:21;97142.78;;;26.25;46.13
56142;BME280;42018;48.588;10.836;2022-07-22T07:41:06;97144.56;;;26.17;46.35
56142;BME280;42018;48.588;10.836;2022-07-22T07:43:52;97138.91;;;26.45;47.01
56142;BME280;42018;48.588;10.836;2022-07-22T07:46:38;97140.16;;;26.48;46.99
56142;BME280;42018;48.588;10.836;2022-07-22T07:49:23;97136.81;;;26.78;47.00
56142;BME280;42018;48.588;10.836;2022-07-22T07:52:08;97141.66;;;26.65;45.70
56142;BME280;42018;48.588;10.836;2022-07-22T07:54:54;97141.47;;;27.00;45.86
56142;BME280;42018;48.588;10.836;2022-07-22T07:57:41;97137.22;;;27.22;45.62
56142;BME280;42018;48.588;10.836;2022-07-22T08:00:26;97135.59;;;27.44;44.90
56142;BME280;42018;48.588;10.836;2022-07-22T08:03:13;97133.56;;;27.64;45.15
56142;BME280;42018;48.588;10.836;2022-07-22T08:05:59;97134.34;;;26.69;44.47
56142;BME280;42018;48.588;10.836;2022-07-22T08:08:44;97128.84;;;27.11;44.60
56142;BME280;42018;48.588;10.836;2022-07-22T08:11:30;97131.03;;;27.02;44.21
56142;BME280;42018;48.588;10.836;2022-07-22T08:14:15;97132.06;;;27.40;43.15
56142;BME280;42018;48.588;10.836;2022-07-22T08:17:01;97130.34;;;27.32;42.58
56142;BME280;42018;48.588;10.836;2022-07-22T08:19:46;97130.22;;;26.79;43.98
56142;BME280;42018;48.588;10.836;2022-07-22T08:22:32;97138.09;;;27.07;43.42
56142;BME280;42018;48.588;10.836;2022-07-22T08:25:18;97125.81;;;27.39;42.81
56142;BME280;42018;48.588;10.836;2022-07-22T08:28:03;97117.91;;;27.31;42.60
56142;BME280;42018;48.588;10.836;2022-07-22T08:30:49;97122.16;;;27.55;42.63
56142;BME280;42018;48.588;10.836;2022-07-22T08:33:35;97120.97;;;27.79;41.93
56142;BME280;42018;48.588;10.836;2022-07-22T08:36:20;97121.56;;;27.95;41.33
56142;BME280;42018;48.588;10.836;2022-07-22T08:39:05;97111.31;;;27.85;40.66
56142;BME280;42018;48.588;10.836;2022-07-22T08:41:51;97109.53;;;28.00;41.25
56142;BME280;42018;48.588;10.836;2022-07-22T08:44:37;97104.53;;;28.35;40.12
56142;BME280;42018;48.588;10.836;2022-07-22T08:47:23;97102.22;;;28.37;39.88
56142;BME280;42018;48.588;10.836;2022-07-22T08:50:08;97104.69;;;28.46;39.62
56142;BME280;42018;48.588;10.836;2022-07-22T08:52:54;97099.41;;;28.64;39.63
56142;BME280;42018;48.588;10.836;2022-07-22T08:55:43;97100.22;;;28.34;39.34
56142;BME280;42018;48.588;10.836;2022-07-22T08:58:29;97097.75;;;28.56;39.70
56142;BME280;42018;48.588;10.836;2022-07-22T09:01:15;97096.72;;;29.12;39.35
56142;BME280;42018;48.588;10.836;2022-07-22T09:04:02;97089.06;;;29.28;39.10
56142;BME280;42018;48.588;10.836;2022-07-22T09:06:48;97098.75;;;29.22;37.57
56142;BME280;42018;48.588;10.836;2022-07-22T09:09:34;97097.81;;;29.00;36.32
56142;BME280;42018;48.588;10.836;2022-07-22T09:12:19;97090.56;;;29.22;37.74
56142;BME280;42018;48.588;10.836;2022-07-22T09:15:06;97090.88;;;29.69;37.31
56142;BME280;42018;48.588;10.836;2022-07-22T09:17:51;97081.56;;;29.18;36.92
56142;BME280;42018;48.588;10.836;2022-07-22T09:20:37;97078.75;;;29.66;37.50
56142;BME280;42018;48.588;10.836;2022-07-22T09:23:22;97074.47;;;29.65;36.54
56142;BME280;42018;48.588;10.836;2022-07-22T09:26:38;97070.28;;;29.82;36.26
56142;BME280;42018;48.588;10.836;2022-07-22T09:29:24;97065.41;;;29.54;36.05
56142;BME280;42018;48.588;10.836;2022-07-22T09:32:09;97065.13;;;29.73;36.63
56142;BME280;42018;48.588;10.836;2022-07-22T09:35:03;97068.25;;;29.68;35.51
56142;BME280;42018;48.588;10.836;2022-07-22T09:37:57;97067.31;;;28.95;37.18
56142;BME280;42018;48.588;10.836;2022-07-22T09:40:45;97065.25;;;29.29;36.74
56142;BME280;42018;48.588;10.836;2022-07-22T09:43:35;97059.00;;;30.01;36.94
56142;BME280;42018;48.588;10.836;2022-07-22T09:46:36;97049.38;;;30.43;36.58
56142;BME280;42018;48.588;10.836;2022-07-22T09:49:37;97054.47;;;30.45;34.05
56142;BME280;42018;48.588;10.836;2022-07-22T09:52:25;97053.31;;;30.53;35.20
56142;BME280;42018;48.588;10.836;2022-07-22T09:55:13;97049.00;;;30.59;34.80
56142;BME280;42018;48.588;10.836;2022-07-22T09:57:59;97041.13;;;30.18;34.77
56142;BME280;42018;48.588;10.836;2022-07-22T10:00:45;97044.56;;;29.97;36.15
56142;BME280;42018;48.588;10.836;2022-07-22T10:03:34;97039.59;;;30.28;35.23
56142;BME280;42018;48.588;10.836;2022-07-22T10:06:22;97037.56;;;30.03;35.45
56142;BME280;42018;48.588;10.836;2022-07-22T10:09:07;97025.53;;;30.33;34.97
56142;BME280;42018;48.588;10.836;2022-07-22T10:11:54;97034.19;;;30.57;34.48
56142;BME280;42018;48.588;10.836;2022-07-22T10:14:40;97028.28;;;30.33;34.22
56142;BME280;42018;48.588;10.836;2022-07-22T10:17:25;97023.22;;;30.42;34.84
56142;BME280;42018;48.588;10.836;2022-07-22T10:20:11;97024.81;;;30.72;34.63
56142;BME280;42018;48.588;10.836;2022-07-22T10:23:02;97018.53;;;30.36;34.84
56142;BME280;42018;48.588;10.836;2022-07-22T10:25:56;97022.88;;;30.83;34.15
56142;BME280;42018;48.588;10.836;2022-07-22T10:28:43;97018.50;;;31.29;34.66
56142;BME280;42018;48.588;10.836;2022-07-22T10:31:29;97017.66;;;31.67;34.40
56142;BME280;42018;48.588;10.836;2022-07-22T10:34:14;97024.63;;;31.86;33.74
56142;BME280;42018;48.588;10.836;2022-07-22T10:36:59;97019.28;;;31.29;33.18
56142;BME280;42018;48.588;10.836;2022-07-22T10:40:30;97012.22;;;31.53;34.60
56142;BME280;42018;48.588;10.836;2022-07-22T10:43:18;97011.50;;;31.31;33.23
56142;BME280;42018;48.588;10.836;2022-07-22T10:46:03;97008.34;;;31.33;33.86
56142;BME280;42018;48.588;10.836;2022-07-22T10:48:51;97007.59;;;31.32;32.90
56142;BME280;42018;48.588;10.836;2022-07-22T10:51:37;96996.53;;;31.57;31.53
56142;BME280;42018;48.588;10.836;2022-07-22T10:54:22;96995.47;;;32.21;31.84
56142;BME280;42018;48.588;10.836;2022-07-22T10:57:07;96994.94;;;32.44;31.10
56142;BME280;42018;48.588;10.836;2022-07-22T10:59:54;96992.16;;;32.48;31.16
56142;BME280;42018;48.588;10.836;2022-07-22T11:02:40;96984.88;;;32.75;31.44
56142;BME280;42018;48.588;10.836;2022-07-22T11:05:27;96979.41;;;32.75;31.24
56142;BME280;42018;48.588;10.836;2022-07-22T11:08:13;96981.91;;;32.59;31.17
56142;BME280;42018;48.588;10.836;2022-07-22T11:10:58;96984.63;;;32.00;31.67
56142;BME280;42018;48.588;10.836;2022-07-22T11:13:44;96974.91;;;31.88;31.87
56142;BME280;42018;48.588;10.836;2022-07-22T11:16:29;96969.59;;;32.22;31.16
56142;BME280;42018;48.588;10.836;2022-07-22T11:19:23;96971.09;;;32.30;31.20
56142;BME280;42018;48.588;10.836;2022-07-22T11:22:11;96974.72;;;32.20;32.29
56142;BME280;42018;48.588;10.836;2022-07-22T11:24:57;96969.44;;;32.92;32.05
56142;BME280;42018;48.588;10.836;2022-07-22T11:27:53;96981.78;;;32.17;31.80
56142;BME280;42018;48.588;10.836;2022-07-22T11:30:41;96964.63;;;32.62;30.82
56142;BME280;42018;48.588;10.836;2022-07-22T11:33:26;96966.03;;;33.22;31.02
56142;BME280;42018;48.588;10.836;2022-07-22T11:36:11;96960.22;;;33.51;30.84
56142;BME280;42018;48.588;10.836;2022-07-22T11:38:57;96954.97;;;33.64;30.30
56142;BME280;42018;48.588;10.836;2022-07-22T11:41:42;96956.91;;;32.91;30.59
56142;BME280;42018;48.588;10.836;2022-07-22T11:44:30;96950.78;;;32.28;30.14
56142;BME280;42018;48.588;10.836;2022-07-22T11:47:16;96946.28;;;32.97;30.35
56142;BME280;42018;48.588;10.836;2022-07-22T11:50:02;96943.53;;;33.34;30.18
56142;BME280;42018;48.588;10.836;2022-07-22T11:52:53;96941.44;;;33.46;29.64
56142;BME280;42018;48.588;10.836;2022-07-22T11:55:39;96941.25;;;32.47;29.94
56142;BME280;42018;48.588;10.836;2022-07-22T11:58:45;96935.34;;;33.31;29.19
56142;BME280;42018;48.588;10.836;2022-07-22T12:01:33;96935.78;;;33.26;28.88
56142;BME280;42018;48.588;10.836;2022-07-22T12:04:21;96925.06;;;33.35;28.27
56142;BME280;42018;48.588;10.836;2022-07-22T12:07:10;96914.59;;;33.88;27.89
56142;BME280;42018;48.588;10.836;2022-07-22T12:09:56;96912.69;;;33.84;27.36
56142;BME280;42018;48.588;10.836;2022-07-22T12:12:42;96899.13;;;33.40;28.09
56142;BME280;42018;48.588;10.836;2022-07-22T12:15:28;96908.81;;;33.17;28.50
56142;BME280;42018;48.588;10.836;2022-07-22T12:18:17;96906.94;;;33.10;28.68
56142;BME280;42018;48.588;10.836;2022-07-22T12:21:05;96897.13;;;33.74;28.29
56142;BME280;42018;48.588;10.836;2022-07-22T12:24:11;96895.72;;;33.63;27.98
56142;BME280;42018;48.588;10.836;2022-07-22T12:27:02;96886.41;;;33.83;28.33
56142;BME280;42018;48.588;10.836;2022-07-22T12:29:49;96888.56;;;34.23;28.79
56142;BME280;42018;48.588;10.836;2022-07-22T12:32:34;96897.59;;;34.70;28.08
56142;BME280;42018;48.588;10.836;2022-07-22T12:35:20;96887.59;;;34.80;27.47
56142;BME280;42018;48.588;10.836;2022-07-22T12:38:07;96880.50;;;35.22;28.09
56142;BME280;42018;48.588;10.836;2022-07-22T12:40:53;96884.06;;;34.79;27.57
56142;BME280;42018;48.588;10.836;2022-07-22T12:43:39;96881.16;;;34.87;26.06
56142;BME280;42018;48.588;10.836;2022-07-22T12:46:24;96882.75;;;34.17;26.28
56142;BME280;42018;48.588;10.836;2022-07-22T12:49:10;96870.66;;;34.35;26.13
56142;BME280;42018;48.588;10.836;2022-07-22T12:54:52;96866.41;;;35.37;26.09
56142;BME280;42018;48.588;10.836;2022-07-22T12:57:37;96861.94;;;35.43;25.65
56142;BME280;42018;48.588;10.836;2022-07-22T13:00:26;96862.28;;;35.45;27.31
56142;BME280;42018;48.588;10.836;2022-07-22T13:03:11;96860.53;;;35.55;28.08
56142;BME280;42018;48.588;10.836;2022-07-22T13:06:01;96867.03;;;35.44;26.26
56142;BME280;42018;48.588;10.836;2022-07-22T13:08:46;96855.22;;;35.80;26.80
56142;BME280;42018;48.588;10.836;2022-07-22T13:11:33;96846.59;;;35.78;25.01
56142;BME280;42018;48.588;10.836;2022-07-22T13:14:24;96861.03;;;34.90;25.09
56142;BME280;42018;48.588;10.836;2022-07-22T13:17:09;96858.00;;;34.41;26.59
56142;BME280;42018;48.588;10.836;2022-07-22T13:19:57;96848.00;;;34.94;26.68
56142;BME280;42018;48.588;10.836;2022-07-22T13:22:45;96847.91;;;35.17;26.53
56142;BME280;42018;48.588;10.836;2022-07-22T13:25:31;96840.56;;;35.31;25.63
56142;BME280;42018;48.588;10.836;2022-07-22T13:28:17;96840.88;;;35.16;26.23
56142;BME280;42018;48.588;10.836;2022-07-22T13:31:03;96835.97;;;35.24;25.49
56142;BME280;42018;48.588;10.836;2022-07-22T13:33:48;96821.09;;;35.58;25.60
56142;BME280;42018;48.588;10.836;2022-07-22T13:36:34;96827.66;;;35.80;26.46
56142;BME280;42018;48.588;10.836;2022-07-22T13:39:20;96826.56;;;35.94;25.98
56142;BME280;42018;48.588;10.836;2022-07-22T13:42:06;96828.00;;;35.30;25.98
56142;BME280;42018;48.588;10.836;2022-07-22T13:44:52;96822.56;;;35.62;25.99
56142;BME280;42018;48.588;10.836;2022-07-22T13:47:40;96823.78;;;35.94;26.56
56142;BME280;42018;48.588;10.836;2022-07-22T13:50:26;96824.97;;;35.93;25.58
56142;BME280;42018;48.588;10.836;2022-07-22T13:53:11;96821.16;;;34.78;25.65
56142;BME280;42018;48.588;10.836;2022-07-22T13:55:56;96829.53;;;34.71;26.47
56142;BME280;42018;48.588;10.836;2022-07-22T13:58:42;96824.34;;;35.16;26.56
56142;BME280;42018;48.588;10.836;2022-07-22T14:01:28;96818.13;;;35.48;26.60
56142;BME280;42018;48.588;10.836;2022-07-22T14:04:13;96814.81;;;35.73;26.56
56142;BME280;42018;48.588;10.836;2022-07-22T14:06:59;96803.78;;;35.73;25.69
56142;BME280;42018;48.588;10.836;2022-07-22T14:09:44;96808.69;;;35.82;25.83
56142;BME280;42018;48.588;10.836;2022-07-22T14:12:29;96808.88;;;35.75;26.84
56142;BME280;42018;48.588;10.836;2022-07-22T14:15:15;96804.56;;;35.90;25.49
56142;BME280;42018;48.588;10.836;2022-07-22T14:18:01;96807.50;;;35.47;25.12
56142;BME280;42018;48.588;10.836;2022-07-22T14:20:46;96805.78;;;35.73;25.21
56142;BME280;42018;48.588;10.836;2022-07-22T14:23:31;96803.34;;;35.91;25.41
56142;BME280;42018;48.588;10.836;2022-07-22T14:26:17;96804.38;;;35.29;25.77
56142;BME280;42018;48.588;10.836;2022-07-22T14:29:03;96808.03;;;35.06;25.95
56142;BME280;42018;48.588;10.836;2022-07-22T14:31:49;96807.59;;;34.67;25.74